RYR6077 EKBI-EPBY
Flight info
| Callsign | RYR6077 |
|---|---|
| Flight time | 0h 59m |
| Altitude | 35000 |
| Route | RIDSI DCT KOSEB DCT BINKA DCT DEKUT Z96 LUXUD |
| Aircraft | B738/M-SDE2E3FGHIRWXY/LB1 |
Departure
| Time | 2026-05-08 19:24 |
|---|---|
| Airport | Billund Airport (EKBI) |
Arrival
| Time | 2026-05-08 20:24 |
|---|---|
| Airport | Ignacy Jan Paderewski Bydgoszcz Airport (EPBY) |
| Time | Latitude | Longitude | Altitude | Speed | Heading |
|---|---|---|---|---|---|
| 2026-05-08 18:38 | 55.74528 | 9.14813 | 229 ft | 0 kts | 356° |
| 2026-05-08 19:08 | 55.74518 | 9.14814 | 228 ft | 4 kts | 356° |
| 2026-05-08 19:08 | 55.74491 | 9.14818 | 228 ft | 4 kts | 350° |
| 2026-05-08 19:08 | 55.74467 | 9.14833 | 229 ft | 4 kts | 317° |
| 2026-05-08 19:09 | 55.74456 | 9.14868 | 229 ft | 3 kts | 268° |
| 2026-05-08 19:09 | 55.74456 | 9.14873 | 230 ft | 1 kts | 266° |
| 2026-05-08 19:14 | 55.74456 | 9.14868 | 229 ft | 2 kts | 266° |
| 2026-05-08 19:14 | 55.74453 | 9.14814 | 226 ft | 7 kts | 266° |
| 2026-05-08 19:14 | 55.74449 | 9.14688 | 226 ft | 13 kts | 266° |
| 2026-05-08 19:15 | 55.74438 | 9.14509 | 225 ft | 16 kts | 250° |
| 2026-05-08 19:15 | 55.74371 | 9.14468 | 225 ft | 10 kts | 176° |
| 2026-05-08 19:15 | 55.74300 | 9.14475 | 224 ft | 10 kts | 179° |
| 2026-05-08 19:15 | 55.74257 | 9.14402 | 224 ft | 10 kts | 269° |
| 2026-05-08 19:16 | 55.74256 | 9.14277 | 223 ft | 11 kts | 266° |
| 2026-05-08 19:16 | 55.74250 | 9.14118 | 223 ft | 15 kts | 266° |
| 2026-05-08 19:16 | 55.74245 | 9.13917 | 220 ft | 18 kts | 268° |
| 2026-05-08 19:16 | 55.74239 | 9.13698 | 219 ft | 17 kts | 266° |
| 2026-05-08 19:17 | 55.74229 | 9.13510 | 218 ft | 6 kts | 264° |
| 2026-05-08 19:17 | 55.74229 | 9.13507 | 218 ft | 0 kts | 263° |
| 2026-05-08 19:20 | 55.74227 | 9.13472 | 217 ft | 7 kts | 262° |
| 2026-05-08 19:21 | 55.74187 | 9.13352 | 220 ft | 14 kts | 225° |
| 2026-05-08 19:21 | 55.74101 | 9.13262 | 216 ft | 15 kts | 192° |
| 2026-05-08 19:21 | 55.74003 | 9.13275 | 221 ft | 14 kts | 155° |
| 2026-05-08 19:21 | 55.73980 | 9.13374 | 218 ft | 0 kts | 86° |
| 2026-05-08 19:23 | 55.73980 | 9.13382 | 218 ft | 3 kts | 86° |
| 2026-05-08 19:23 | 55.73992 | 9.13705 | 226 ft | 59 kts | 87° |
| 2026-05-08 19:23 | 55.74026 | 9.14815 | 228 ft | 119 kts | 87° |
| 2026-05-08 19:24 | 55.74061 | 9.16559 | 319 ft | 157 kts | 94° |
| 2026-05-08 19:24 | 55.74060 | 9.18516 | 875 ft | 161 kts | 91° |
| 2026-05-08 19:24 | 55.74118 | 9.20393 | 1704 ft | 150 kts | 89° |
| 2026-05-08 19:24 | 55.74125 | 9.22286 | 2321 ft | 154 kts | 96° |
| 2026-05-08 19:25 | 55.74143 | 9.24192 | 3029 ft | 156 kts | 86° |
| 2026-05-08 19:25 | 55.74240 | 9.26165 | 3576 ft | 169 kts | 88° |
| 2026-05-08 19:25 | 55.74266 | 9.28378 | 3901 ft | 191 kts | 103° |
| 2026-05-08 19:25 | 55.73769 | 9.30682 | 4168 ft | 208 kts | 115° |
| 2026-05-08 19:26 | 55.73160 | 9.33186 | 4309 ft | 238 kts | 111° |
| 2026-05-08 19:26 | 55.72556 | 9.36015 | 4916 ft | 246 kts | 111° |
| 2026-05-08 19:26 | 55.71958 | 9.38845 | 5659 ft | 252 kts | 110° |
| 2026-05-08 19:26 | 55.71328 | 9.41828 | 6353 ft | 258 kts | 110° |
| 2026-05-08 19:27 | 55.70704 | 9.44795 | 7089 ft | 262 kts | 110° |
| 2026-05-08 19:27 | 55.70065 | 9.47840 | 7799 ft | 266 kts | 110° |
| 2026-05-08 19:27 | 55.69419 | 9.50929 | 8525 ft | 269 kts | 110° |
| 2026-05-08 19:27 | 55.68761 | 9.54070 | 9206 ft | 274 kts | 111° |
| 2026-05-08 19:28 | 55.68097 | 9.57243 | 9973 ft | 276 kts | 111° |
| 2026-05-08 19:28 | 55.67427 | 9.60445 | 10613 ft | 282 kts | 111° |
| 2026-05-08 19:28 | 55.66716 | 9.63829 | 10785 ft | 304 kts | 111° |
| 2026-05-08 19:28 | 55.65952 | 9.67463 | 10951 ft | 326 kts | 111° |
| 2026-05-08 19:29 | 55.65139 | 9.71330 | 11192 ft | 343 kts | 111° |
| 2026-05-08 19:29 | 55.64297 | 9.75331 | 11675 ft | 351 kts | 111° |
| 2026-05-08 19:29 | 55.63441 | 9.79393 | 12339 ft | 354 kts | 111° |
| 2026-05-08 19:29 | 55.62570 | 9.83519 | 12908 ft | 361 kts | 111° |
| 2026-05-08 19:30 | 55.61683 | 9.87713 | 13507 ft | 367 kts | 111° |
| 2026-05-08 19:30 | 55.60783 | 9.91962 | 14145 ft | 372 kts | 111° |
| 2026-05-08 19:30 | 55.59865 | 9.96274 | 14725 ft | 377 kts | 111° |
| 2026-05-08 19:30 | 55.58917 | 10.00618 | 15337 ft | 381 kts | 114° |
| 2026-05-08 19:31 | 55.57778 | 10.04865 | 15974 ft | 384 kts | 117° |
| 2026-05-08 19:31 | 55.56522 | 10.09069 | 16560 ft | 390 kts | 119° |
| 2026-05-08 19:31 | 55.55218 | 10.13299 | 17139 ft | 395 kts | 119° |
| 2026-05-08 19:31 | 55.53896 | 10.17577 | 17778 ft | 398 kts | 119° |
| 2026-05-08 19:32 | 55.52573 | 10.21892 | 18387 ft | 402 kts | 118° |
| 2026-05-08 19:32 | 55.51243 | 10.26264 | 18929 ft | 406 kts | 118° |
| 2026-05-08 19:32 | 55.49909 | 10.30683 | 19446 ft | 410 kts | 118° |
| 2026-05-08 19:32 | 55.48566 | 10.35144 | 19976 ft | 413 kts | 118° |
| 2026-05-08 19:33 | 55.47218 | 10.39630 | 20536 ft | 416 kts | 118° |
| 2026-05-08 19:33 | 55.45862 | 10.44144 | 21089 ft | 418 kts | 118° |
| 2026-05-08 19:33 | 55.44493 | 10.48692 | 21560 ft | 422 kts | 118° |
| 2026-05-08 19:33 | 55.43112 | 10.53274 | 22026 ft | 426 kts | 118° |
| 2026-05-08 19:34 | 55.41714 | 10.57901 | 22545 ft | 429 kts | 118° |
| 2026-05-08 19:34 | 55.40310 | 10.62541 | 23050 ft | 431 kts | 118° |
| 2026-05-08 19:34 | 55.38893 | 10.67214 | 23518 ft | 434 kts | 118° |
| 2026-05-08 19:34 | 55.37464 | 10.71914 | 23933 ft | 438 kts | 118° |
| 2026-05-08 19:35 | 55.36021 | 10.76653 | 24319 ft | 441 kts | 118° |
| 2026-05-08 19:35 | 55.34570 | 10.81409 | 24736 ft | 442 kts | 118° |
| 2026-05-08 19:35 | 55.33111 | 10.86181 | 25130 ft | 444 kts | 118° |
| 2026-05-08 19:35 | 55.31641 | 10.90977 | 25501 ft | 447 kts | 118° |
| 2026-05-08 19:36 | 55.30162 | 10.95794 | 25857 ft | 450 kts | 118° |
| 2026-05-08 19:36 | 55.28675 | 11.00629 | 26211 ft | 452 kts | 118° |
| 2026-05-08 19:36 | 55.27174 | 11.05497 | 26491 ft | 456 kts | 118° |
| 2026-05-08 19:36 | 55.25657 | 11.10410 | 26796 ft | 459 kts | 118° |
| 2026-05-08 19:37 | 55.24132 | 11.15337 | 27202 ft | 460 kts | 118° |
| 2026-05-08 19:37 | 55.22604 | 11.20261 | 27568 ft | 461 kts | 118° |
| 2026-05-08 19:37 | 55.21067 | 11.25208 | 27885 ft | 464 kts | 118° |
| 2026-05-08 19:37 | 55.19519 | 11.30177 | 28189 ft | 466 kts | 118° |
| 2026-05-08 19:38 | 55.17960 | 11.35174 | 28489 ft | 469 kts | 119° |
| 2026-05-08 19:38 | 55.16394 | 11.40180 | 28795 ft | 470 kts | 119° |
| 2026-05-08 19:38 | 55.14818 | 11.45208 | 29094 ft | 472 kts | 119° |
| 2026-05-08 19:38 | 55.13233 | 11.50255 | 29377 ft | 474 kts | 119° |
| 2026-05-08 19:39 | 55.11644 | 11.55303 | 29733 ft | 475 kts | 119° |
| 2026-05-08 19:39 | 55.10053 | 11.60349 | 30198 ft | 472 kts | 119° |
| 2026-05-08 19:39 | 55.08473 | 11.65347 | 30673 ft | 469 kts | 119° |
| 2026-05-08 19:39 | 55.06897 | 11.70323 | 31016 ft | 468 kts | 119° |
| 2026-05-08 19:40 | 55.05318 | 11.75297 | 31253 ft | 470 kts | 119° |
| 2026-05-08 19:40 | 55.03730 | 11.80291 | 31504 ft | 471 kts | 120° |
| 2026-05-08 19:40 | 55.02141 | 11.85277 | 31821 ft | 470 kts | 120° |
| 2026-05-08 19:40 | 55.00552 | 11.90251 | 32156 ft | 469 kts | 120° |
| 2026-05-08 19:41 | 54.98962 | 11.95220 | 32449 ft | 469 kts | 120° |
| 2026-05-08 19:41 | 54.97371 | 12.00182 | 32710 ft | 470 kts | 120° |
| 2026-05-08 19:41 | 54.95796 | 12.05085 | 32998 ft | 470 kts | 120° |
| 2026-05-08 19:41 | 54.94201 | 12.10038 | 33314 ft | 469 kts | 120° |
| 2026-05-08 19:42 | 54.92607 | 12.14971 | 33700 ft | 466 kts | 121° |
| 2026-05-08 19:42 | 54.90796 | 12.19627 | 33955 ft | 465 kts | 131° |
| 2026-05-08 19:42 | 54.88634 | 12.23825 | 34063 ft | 468 kts | 134° |
| 2026-05-08 19:42 | 54.86393 | 12.27962 | 34198 ft | 471 kts | 135° |
| 2026-05-08 19:43 | 54.84135 | 12.32084 | 34461 ft | 470 kts | 135° |
| 2026-05-08 19:43 | 54.81891 | 12.36193 | 34752 ft | 468 kts | 135° |
| 2026-05-08 19:43 | 54.79663 | 12.40301 | 34978 ft | 468 kts | 134° |
| 2026-05-08 19:43 | 54.77442 | 12.44427 | 35153 ft | 469 kts | 134° |
| 2026-05-08 19:44 | 54.75217 | 12.48576 | 35260 ft | 471 kts | 134° |
| 2026-05-08 19:44 | 54.70747 | 12.56925 | 35253 ft | 472 kts | 134° |
| 2026-05-08 19:45 | 54.66307 | 12.65202 | 35251 ft | 466 kts | 134° |
| 2026-05-08 19:45 | 54.61893 | 12.73396 | 35264 ft | 465 kts | 134° |
| 2026-05-08 19:46 | 54.57485 | 12.81547 | 35249 ft | 465 kts | 135° |
| 2026-05-08 19:46 | 54.50861 | 12.93741 | 35266 ft | 465 kts | 135° |
| 2026-05-08 19:47 | 54.46424 | 13.01875 | 35265 ft | 467 kts | 135° |
| 2026-05-08 19:47 | 54.41962 | 13.10026 | 35259 ft | 469 kts | 135° |
| 2026-05-08 19:48 | 54.37482 | 13.18184 | 35260 ft | 470 kts | 135° |
| 2026-05-08 19:48 | 54.32982 | 13.26350 | 35260 ft | 472 kts | 135° |
| 2026-05-08 19:49 | 54.28466 | 13.34518 | 35255 ft | 473 kts | 135° |
| 2026-05-08 19:49 | 54.23940 | 13.42676 | 35244 ft | 473 kts | 135° |
| 2026-05-08 19:50 | 54.20178 | 13.49436 | 35251 ft | 472 kts | 135° |
| 2026-05-08 19:50 | 54.15643 | 13.57558 | 35248 ft | 472 kts | 135° |
| 2026-05-08 19:51 | 54.11111 | 13.65649 | 35250 ft | 472 kts | 135° |
| 2026-05-08 19:51 | 54.06578 | 13.73713 | 35244 ft | 471 kts | 135° |
| 2026-05-08 19:52 | 54.02043 | 13.81755 | 35241 ft | 470 kts | 135° |
| 2026-05-08 19:52 | 53.97510 | 13.89765 | 35245 ft | 470 kts | 135° |
| 2026-05-08 19:53 | 53.92979 | 13.97746 | 35230 ft | 469 kts | 136° |
| 2026-05-08 19:53 | 53.88447 | 14.05703 | 35240 ft | 469 kts | 136° |
| 2026-05-08 19:54 | 53.83942 | 14.13589 | 35240 ft | 469 kts | 136° |
| 2026-05-08 19:54 | 53.79372 | 14.21560 | 35239 ft | 469 kts | 136° |
| 2026-05-08 19:55 | 53.75412 | 14.30310 | 35241 ft | 472 kts | 120° |
| 2026-05-08 19:55 | 53.72922 | 14.40502 | 35239 ft | 473 kts | 110° |
| 2026-05-08 19:56 | 53.70725 | 14.50846 | 35201 ft | 458 kts | 110° |
| 2026-05-08 19:56 | 53.68570 | 14.60829 | 35209 ft | 451 kts | 111° |
| 2026-05-08 19:57 | 53.66385 | 14.70724 | 35216 ft | 449 kts | 111° |
| 2026-05-08 19:57 | 53.64215 | 14.80444 | 35209 ft | 440 kts | 111° |
| 2026-05-08 19:58 | 53.63147 | 14.85208 | 35190 ft | 428 kts | 111° |
| 2026-05-08 19:58 | 53.62110 | 14.89828 | 35196 ft | 419 kts | 111° |
| 2026-05-08 19:58 | 53.60056 | 14.98939 | 34483 ft | 419 kts | 111° |
| 2026-05-08 19:59 | 53.59005 | 15.03583 | 33510 ft | 432 kts | 111° |
| 2026-05-08 19:59 | 53.57915 | 15.08391 | 32297 ft | 448 kts | 111° |
| 2026-05-08 19:59 | 53.56785 | 15.13366 | 31164 ft | 461 kts | 111° |
| 2026-05-08 19:59 | 53.55627 | 15.18455 | 30145 ft | 471 kts | 111° |
| 2026-05-08 20:00 | 53.54456 | 15.23590 | 29660 ft | 465 kts | 111° |
| 2026-05-08 20:00 | 53.53310 | 15.28602 | 29349 ft | 454 kts | 111° |
| 2026-05-08 20:00 | 53.52177 | 15.33548 | 29070 ft | 455 kts | 111° |
| 2026-05-08 20:00 | 53.51028 | 15.38550 | 28802 ft | 462 kts | 111° |
| 2026-05-08 20:01 | 53.49867 | 15.43592 | 28527 ft | 463 kts | 111° |
| 2026-05-08 20:01 | 53.48709 | 15.48609 | 28273 ft | 460 kts | 111° |
| 2026-05-08 20:01 | 53.46394 | 15.58603 | 27964 ft | 460 kts | 112° |
| 2026-05-08 20:02 | 53.45237 | 15.63581 | 27697 ft | 456 kts | 112° |
| 2026-05-08 20:02 | 53.44088 | 15.68511 | 27426 ft | 452 kts | 112° |
| 2026-05-08 20:02 | 53.42945 | 15.73407 | 27164 ft | 450 kts | 112° |
| 2026-05-08 20:02 | 53.41804 | 15.78279 | 26901 ft | 448 kts | 112° |
| 2026-05-08 20:03 | 53.40681 | 15.83069 | 26642 ft | 446 kts | 112° |
| 2026-05-08 20:03 | 53.39545 | 15.87900 | 26392 ft | 445 kts | 112° |
| 2026-05-08 20:03 | 53.38412 | 15.92708 | 26143 ft | 443 kts | 112° |
| 2026-05-08 20:03 | 53.37281 | 15.97496 | 25885 ft | 441 kts | 112° |
| 2026-05-08 20:04 | 53.36151 | 16.02268 | 25638 ft | 440 kts | 112° |
| 2026-05-08 20:04 | 53.35026 | 16.07012 | 25392 ft | 438 kts | 112° |
| 2026-05-08 20:04 | 53.33903 | 16.11733 | 25121 ft | 435 kts | 112° |
| 2026-05-08 20:04 | 53.32790 | 16.16408 | 24663 ft | 430 kts | 112° |
| 2026-05-08 20:05 | 53.31687 | 16.21027 | 24196 ft | 426 kts | 112° |
| 2026-05-08 20:05 | 53.30590 | 16.25609 | 23710 ft | 422 kts | 112° |
| 2026-05-08 20:05 | 53.29502 | 16.30147 | 23154 ft | 419 kts | 112° |
| 2026-05-08 20:05 | 53.28422 | 16.34642 | 22639 ft | 415 kts | 112° |
| 2026-05-08 20:06 | 53.27352 | 16.39088 | 22164 ft | 410 kts | 112° |
| 2026-05-08 20:06 | 53.26292 | 16.43479 | 21691 ft | 406 kts | 112° |
| 2026-05-08 20:06 | 53.25241 | 16.47829 | 21209 ft | 402 kts | 112° |
| 2026-05-08 20:06 | 53.24196 | 16.52139 | 20741 ft | 399 kts | 112° |
| 2026-05-08 20:07 | 53.23160 | 16.56409 | 20278 ft | 395 kts | 112° |
| 2026-05-08 20:07 | 53.22130 | 16.60647 | 19814 ft | 392 kts | 112° |
| 2026-05-08 20:07 | 53.21107 | 16.64846 | 19361 ft | 389 kts | 112° |
| 2026-05-08 20:07 | 53.20089 | 16.69015 | 18909 ft | 387 kts | 112° |
| 2026-05-08 20:08 | 53.19076 | 16.73156 | 18453 ft | 384 kts | 112° |
| 2026-05-08 20:08 | 53.18068 | 16.77270 | 17937 ft | 382 kts | 112° |
| 2026-05-08 20:08 | 53.17065 | 16.81357 | 17458 ft | 379 kts | 112° |
| 2026-05-08 20:08 | 53.16071 | 16.85400 | 16988 ft | 376 kts | 112° |
| 2026-05-08 20:09 | 53.15083 | 16.89416 | 16550 ft | 373 kts | 112° |
| 2026-05-08 20:09 | 53.14103 | 16.93389 | 16111 ft | 370 kts | 112° |
| 2026-05-08 20:09 | 53.13126 | 16.97338 | 15685 ft | 367 kts | 112° |
| 2026-05-08 20:09 | 53.12182 | 17.01263 | 15228 ft | 364 kts | 108° |
| 2026-05-08 20:10 | 53.11597 | 17.05339 | 14870 ft | 359 kts | 97° |
| 2026-05-08 20:10 | 53.11452 | 17.09444 | 14555 ft | 354 kts | 90° |
| 2026-05-08 20:10 | 53.11431 | 17.13530 | 14149 ft | 352 kts | 89° |
| 2026-05-08 20:10 | 53.11408 | 17.17539 | 13711 ft | 350 kts | 90° |
| 2026-05-08 20:11 | 53.11367 | 17.21578 | 13260 ft | 348 kts | 90° |
| 2026-05-08 20:11 | 53.11316 | 17.25592 | 12821 ft | 346 kts | 90° |
| 2026-05-08 20:11 | 53.11251 | 17.29578 | 12433 ft | 342 kts | 91° |
| 2026-05-08 20:11 | 53.11172 | 17.33520 | 12020 ft | 340 kts | 91° |
| 2026-05-08 20:12 | 53.11090 | 17.37438 | 11605 ft | 338 kts | 91° |
| 2026-05-08 20:12 | 53.11010 | 17.41328 | 11197 ft | 335 kts | 91° |
| 2026-05-08 20:12 | 53.10931 | 17.45181 | 10944 ft | 328 kts | 91° |
| 2026-05-08 20:12 | 53.10852 | 17.48912 | 10803 ft | 318 kts | 91° |
| 2026-05-08 20:13 | 53.10777 | 17.52535 | 10665 ft | 308 kts | 90° |
| 2026-05-08 20:13 | 53.11002 | 17.56013 | 10531 ft | 297 kts | 74° |
| 2026-05-08 20:13 | 53.11550 | 17.59269 | 10430 ft | 288 kts | 73° |
| 2026-05-08 20:13 | 53.12104 | 17.62424 | 10308 ft | 280 kts | 72° |
| 2026-05-08 20:14 | 53.12636 | 17.65488 | 10182 ft | 272 kts | 73° |
| 2026-05-08 20:14 | 53.13151 | 17.68503 | 9909 ft | 270 kts | 73° |
| 2026-05-08 20:14 | 53.13656 | 17.71506 | 9646 ft | 268 kts | 73° |
| 2026-05-08 20:14 | 53.14153 | 17.74487 | 9362 ft | 266 kts | 73° |
| 2026-05-08 20:15 | 53.14642 | 17.77449 | 9090 ft | 264 kts | 73° |
| 2026-05-08 20:15 | 53.15125 | 17.80392 | 8828 ft | 262 kts | 73° |
| 2026-05-08 20:15 | 53.15603 | 17.83313 | 8563 ft | 261 kts | 74° |
| 2026-05-08 20:15 | 53.16079 | 17.86232 | 8204 ft | 263 kts | 74° |
| 2026-05-08 20:16 | 53.16557 | 17.89162 | 7906 ft | 262 kts | 74° |
| 2026-05-08 20:16 | 53.17031 | 17.92082 | 7619 ft | 260 kts | 74° |
| 2026-05-08 20:16 | 53.17502 | 17.94993 | 7343 ft | 259 kts | 74° |
| 2026-05-08 20:16 | 53.17969 | 17.97881 | 7084 ft | 258 kts | 74° |
| 2026-05-08 20:17 | 53.18392 | 18.00774 | 6816 ft | 257 kts | 79° |
| 2026-05-08 20:17 | 53.18643 | 18.03715 | 6547 ft | 256 kts | 82° |
| 2026-05-08 20:17 | 53.18859 | 18.06650 | 6256 ft | 255 kts | 82° |
| 2026-05-08 20:17 | 53.19083 | 18.09569 | 5977 ft | 253 kts | 81° |
| 2026-05-08 20:18 | 53.19314 | 18.12471 | 5705 ft | 251 kts | 81° |
| 2026-05-08 20:18 | 53.19548 | 18.15346 | 5446 ft | 250 kts | 81° |
| 2026-05-08 20:18 | 53.19778 | 18.18164 | 5237 ft | 246 kts | 81° |
| 2026-05-08 20:18 | 53.20002 | 18.20941 | 5133 ft | 238 kts | 82° |
| 2026-05-08 20:19 | 53.19811 | 18.23627 | 5010 ft | 234 kts | 114° |
| 2026-05-08 20:19 | 53.18801 | 18.25716 | 4747 ft | 236 kts | 144° |
| 2026-05-08 20:19 | 53.17307 | 18.26822 | 4458 ft | 239 kts | 167° |
| 2026-05-08 20:19 | 53.15653 | 18.27229 | 4135 ft | 241 kts | 171° |
| 2026-05-08 20:20 | 53.13993 | 18.27508 | 3811 ft | 240 kts | 180° |
| 2026-05-08 20:20 | 53.12449 | 18.26614 | 3426 ft | 239 kts | 221° |
| 2026-05-08 20:20 | 53.11655 | 18.24296 | 3131 ft | 231 kts | 262° |
| 2026-05-08 20:20 | 53.11516 | 18.21689 | 2861 ft | 224 kts | 266° |
| 2026-05-08 20:21 | 53.11361 | 18.19142 | 2542 ft | 219 kts | 265° |
| 2026-05-08 20:21 | 53.11214 | 18.16657 | 2288 ft | 211 kts | 268° |
| 2026-05-08 20:21 | 53.11079 | 18.14294 | 2031 ft | 199 kts | 264° |
| 2026-05-08 20:21 | 53.10894 | 18.12085 | 1761 ft | 188 kts | 264° |
| 2026-05-08 20:22 | 53.10713 | 18.09991 | 1497 ft | 177 kts | 263° |
| 2026-05-08 20:22 | 53.10547 | 18.08042 | 1279 ft | 164 kts | 264° |
| 2026-05-08 20:22 | 53.10395 | 18.06267 | 1109 ft | 150 kts | 264° |
| 2026-05-08 20:22 | 53.10297 | 18.05116 | 959 ft | 153 kts | 264° |
| 2026-05-08 20:23 | 53.10104 | 18.02797 | 660 ft | 149 kts | 264° |
| 2026-05-08 20:23 | 53.09962 | 18.01108 | 435 ft | 148 kts | 264° |
| 2026-05-08 20:23 | 53.09820 | 17.99405 | 248 ft | 150 kts | 265° |
| 2026-05-08 20:23 | 53.09691 | 17.97826 | 225 ft | 120 kts | 262° |
| 2026-05-08 20:24 | 53.09610 | 17.96864 | 223 ft | 40 kts | 260° |
| 2026-05-08 20:24 | 53.09567 | 17.96411 | 224 ft | 37 kts | 261° |
| 2026-05-08 20:24 | 53.09539 | 17.96086 | 222 ft | 15 kts | 259° |
| 2026-05-08 20:24 | 53.09491 | 17.95955 | 221 ft | 14 kts | 193° |
| 2026-05-08 20:25 | 53.09397 | 17.95968 | 222 ft | 13 kts | 172° |
| 2026-05-08 20:25 | 53.09307 | 17.95990 | 223 ft | 13 kts | 166° |
| 2026-05-08 20:25 | 53.09280 | 17.96112 | 224 ft | 13 kts | 81° |
| 2026-05-08 20:25 | 53.09292 | 17.96253 | 223 ft | 12 kts | 83° |
| 2026-05-08 20:26 | 53.09304 | 17.96392 | 223 ft | 12 kts | 82° |
| 2026-05-08 20:26 | 53.09316 | 17.96544 | 223 ft | 14 kts | 82° |
| 2026-05-08 20:26 | 53.09332 | 17.96717 | 223 ft | 17 kts | 82° |
| 2026-05-08 20:26 | 53.09353 | 17.96950 | 224 ft | 24 kts | 82° |
| 2026-05-08 20:27 | 53.09377 | 17.97255 | 223 ft | 28 kts | 82° |
| 2026-05-08 20:27 | 53.09402 | 17.97569 | 223 ft | 27 kts | 82° |
| 2026-05-08 20:27 | 53.09428 | 17.97866 | 223 ft | 25 kts | 81° |
| 2026-05-08 20:27 | 53.09452 | 17.98144 | 223 ft | 23 kts | 82° |
| 2026-05-08 20:28 | 53.09473 | 17.98405 | 223 ft | 23 kts | 83° |
| 2026-05-08 20:28 | 53.09493 | 17.98660 | 223 ft | 22 kts | 82° |
| 2026-05-08 20:28 | 53.09514 | 17.98907 | 223 ft | 21 kts | 82° |
| 2026-05-08 20:28 | 53.09534 | 17.99147 | 223 ft | 21 kts | 83° |
| 2026-05-08 20:29 | 53.09553 | 17.99380 | 223 ft | 20 kts | 82° |
| 2026-05-08 20:29 | 53.09567 | 17.99558 | 223 ft | 11 kts | 82° |
| 2026-05-08 20:29 | 53.09576 | 17.99673 | 223 ft | 7 kts | 80° |
| 2026-05-08 20:29 | 53.09587 | 17.99709 | 224 ft | 2 kts | 52° |
| 2026-05-08 20:30 | 53.09598 | 17.99728 | 223 ft | 2 kts | 44° |
| 2026-05-08 20:30 | 53.09601 | 17.99734 | 223 ft | 1 kts | 44° |
| 2026-05-08 20:30 | 53.09603 | 17.99737 | 223 ft | 0 kts | 43° |